»·PEaware :: KAL32 KDFW-RKSI

KAL32 :: KDFW-RKSI

FLIGHT INFORMATION

Flight Status: Arrived
Operator:
Korean Air
More flights by this operator :: More flights under this callsign
Pilot: Drew L. (13237)
Aircraft: Unknown
(B77W)
More flights by this aircraft type
Origin: KDFW Dallas-Ft Worth Intl
United States
Destination: RKSI Incheon Intl
Republic of Korea
More flights between these airports :: More routes between these airports
Route: LOWGN8 ROLLS J52 FQF CKW DBS J52 LKT MWH PAE TOU J501 YAZ Q801 FINGS MANJO 53N140W 56N150W/N0492F340 57N160W PUGGY 57N180E NATES/N0490F350 R220 NYMPH/K0911F350 R220 NUZAN R220 NUBDA/N0491F370 R220 NODAN R217 ASTER Y514 SDE R217 GTC Y142 SAMON Y14 DRIPS Y16 SAPRA G585 GUKDO GUKD1N
File this flight plan on PilotEdge
Remarks: PBN / A1B1C1D1L1O1S2 DOF / 180619 REG / N713SB EET / KZKC0036 KZDV0056 KZLC0140 KZSE0227 CZVR0321 KZAK0409 53N140W0437 56N150W0522 PAZA0532 57N160W0602 57N180E0720 UHMM0838 RJJJ0908 PAZA0909 RKRR1238 OPR / KAL PER / D RALT / PACD RMK / TCAS SIMBRIEF
Altitude:
(Current/Filed)
30,000ft
Speed:
(Current/Filed)
508kts
Departed: 18-Jun-18 10:42 PM
Arrived: 19-Jun-18 12:34 PM
Distance/Time
Traveled:
5928nm/13:51
Distance/Time
To Go:
Arrived

Flight Plot

Page will automatically refresh every two minutes.

Flight plan parsing failed; only flown route is shown


Map Options




Map Legend


Flown Route
Filed Route
Departure Airport
Arrival Airport
Navaid (VOR, NDB)
Fix

Horizontal Profiles

Position Reports

Time Latitude Longitude Heading Altitude Ground
Speed
18-Jun-18 22:11 32.895002 -97.044391 0 620ft 0kts
18-Jun-18 22:12 32.895002 -97.044391 0 620ft 0kts
18-Jun-18 22:13 32.895002 -97.044391 0 620ft 0kts
18-Jun-18 22:14 32.895002 -97.044391 0 620ft 0kts
18-Jun-18 22:15 32.895002 -97.044391 0 620ft 0kts
18-Jun-18 22:16 32.895002 -97.044391 0 620ft 0kts
18-Jun-18 22:17 32.895002 -97.044391 0 620ft 0kts
18-Jun-18 22:18 32.895002 -97.044391 0 620ft 0kts
18-Jun-18 22:19 32.895002 -97.044391 0 620ft 0kts
18-Jun-18 22:20 32.895002 -97.044391 0 620ft 0kts
18-Jun-18 22:21 32.895002 -97.044391 0 620ft 0kts
18-Jun-18 22:22 32.895002 -97.044391 0 620ft 0kts
18-Jun-18 22:23 32.895002 -97.044391 0 620ft 0kts
18-Jun-18 22:24 32.895002 -97.044391 359 620ft 0kts
18-Jun-18 22:25 32.895002 -97.044391 359 620ft 0kts
18-Jun-18 22:26 32.895002 -97.044391 359 620ft 0kts
18-Jun-18 22:27 32.895002 -97.044391 359 620ft 0kts
18-Jun-18 22:28 32.895002 -97.044391 359 620ft 0kts
18-Jun-18 22:29 32.895002 -97.044391 359 620ft 0kts
18-Jun-18 22:30 32.895002 -97.044391 359 620ft 0kts
18-Jun-18 22:31 32.895002 -97.044391 359 620ft 0kts
18-Jun-18 22:32 32.895002 -97.044391 359 620ft 0kts
18-Jun-18 22:33 32.894999 -97.044391 359 620ft 0kts
18-Jun-18 22:34 32.894285 -97.044391 0 620ft 2kts
18-Jun-18 22:35 32.893677 -97.044391 359 620ft 0kts
18-Jun-18 22:36 32.893677 -97.044391 359 620ft 0kts
18-Jun-18 22:37 32.894198 -97.045952 270 620ft 13kts
18-Jun-18 22:38 32.895652 -97.047587 358 620ft 21kts
18-Jun-18 22:39 32.904115 -97.047500 1 620ft 34kts
18-Jun-18 22:40 32.913668 -97.047856 0 620ft 34kts
18-Jun-18 22:41 32.915440 -97.050674 181 620ft 0kts
18-Jun-18 22:42 32.901013 -97.050764 179 621ft 142kts
18-Jun-18 22:43 32.846624 -97.053795 189 2305ft 216kts
18-Jun-18 22:44 32.785238 -97.080643 216 4380ft 247kts
18-Jun-18 22:45 32.765016 -97.160553 268 6374ft 277kts
18-Jun-18 22:46 32.792186 -97.248607 323 8074ft 309kts
18-Jun-18 22:47 32.874020 -97.275562 2 10237ft 310kts
18-Jun-18 22:48 32.968243 -97.271011 2 10967ft 370kts
18-Jun-18 22:49 33.075519 -97.267501 3 12860ft 393kts
18-Jun-18 22:50 33.185857 -97.262008 3 15061ft 403kts
18-Jun-18 22:51 33.299055 -97.256800 3 17038ft 412kts
18-Jun-18 22:52 33.415272 -97.251439 3 18834ft 422kts
18-Jun-18 22:53 33.533967 -97.242124 6 20377ft 433kts
18-Jun-18 22:54 33.655259 -97.228095 5 21773ft 443kts
18-Jun-18 22:55 33.779687 -97.214675 5 23052ft 452kts
18-Jun-18 22:56 33.906249 -97.201159 5 24189ft 461kts
18-Jun-18 22:57 34.034963 -97.187322 5 25208ft 470kts
18-Jun-18 22:58 34.166223 -97.176180 352 26239ft 475kts
18-Jun-18 22:59 34.275362 -97.261013 312 27195ft 481kts
18-Jun-18 23:00 34.360374 -97.387751 308 28175ft 487kts
18-Jun-18 23:01 34.445649 -97.515832 309 29098ft 491kts
18-Jun-18 23:02 34.532200 -97.644310 308 30128ft 490kts
18-Jun-18 23:03 34.618897 -97.774054 308 30043ft 495kts
18-Jun-18 23:04 34.705291 -97.903900 308 30060ft 495kts
18-Jun-18 23:05 34.791519 -98.033977 308 30045ft 495kts
18-Jun-18 23:06 34.878312 -98.165407 307 30037ft 497kts
18-Jun-18 23:07 34.964778 -98.296829 307 30036ft 497kts
18-Jun-18 23:08 35.051053 -98.428454 307 30034ft 498kts
18-Jun-18 23:09 35.137613 -98.561010 307 30040ft 498kts
18-Jun-18 23:10 35.223787 -98.693479 307 30042ft 498kts
18-Jun-18 23:11 35.309898 -98.826357 307 30043ft 498kts
18-Jun-18 23:12 35.396112 -98.959901 306 30048ft 499kts
18-Jun-18 23:13 35.482009 -99.093470 306 30048ft 499kts
18-Jun-18 23:14 35.568063 -99.227248 306 30045ft 500kts
18-Jun-18 23:15 35.654036 -99.362322 306 30043ft 500kts
18-Jun-18 23:16 35.743005 -99.493826 312 30038ft 503kts
18-Jun-18 23:17 35.846672 -99.609793 316 30043ft 504kts
18-Jun-18 23:18 35.951302 -99.725874 315 30037ft 505kts
18-Jun-18 23:19 36.055557 -99.842011 315 30032ft 505kts
18-Jun-18 23:20 36.159542 -99.958717 315 30031ft 505kts
18-Jun-18 23:21 36.263646 -100.076156 315 30032ft 505kts
18-Jun-18 23:22 36.367322 -100.193559 315 30037ft 505kts
18-Jun-18 23:23 36.471164 -100.311600 315 30039ft 505kts
18-Jun-18 23:24 36.574441 -100.429450 315 30039ft 504kts
18-Jun-18 23:25 36.677534 -100.547532 315 30041ft 504kts
18-Jun-18 23:26 36.780684 -100.666154 315 30040ft 504kts
18-Jun-18 23:27 36.883649 -100.784575 315 30047ft 503kts
18-Jun-18 23:28 36.986308 -100.903846 314 30048ft 503kts
18-Jun-18 23:29 37.084995 -101.026996 308 30050ft 500kts
18-Jun-18 23:30 37.174178 -101.160513 308 30048ft 500kts
18-Jun-18 23:31 37.264680 -101.293382 308 30048ft 499kts
18-Jun-18 23:32 37.355337 -101.425232 307 30045ft 499kts
18-Jun-18 23:33 37.445050 -101.557852 307 30038ft 498kts
18-Jun-18 23:34 37.534912 -101.690992 307 30039ft 497kts
18-Jun-18 23:35 37.624074 -101.823964 307 30031ft 497kts
18-Jun-18 23:36 37.713024 -101.957113 307 30030ft 497kts
18-Jun-18 23:37 37.802591 -102.090405 307 30025ft 496kts
18-Jun-18 23:38 37.891370 -102.223913 307 30015ft 496kts
18-Jun-18 23:39 37.979882 -102.357618 307 29993ft 496kts
18-Jun-18 23:40 38.068734 -102.491895 306 29973ft 496kts
18-Jun-18 23:41 38.156786 -102.626453 306 29963ft 495kts
18-Jun-18 23:42 38.245468 -102.760236 307 29968ft 495kts
18-Jun-18 23:43 38.335255 -102.893905 307 29982ft 495kts
18-Jun-18 23:44 38.424385 -103.027402 307 29998ft 495kts
18-Jun-18 23:45 38.513846 -103.160644 307 30015ft 495kts
18-Jun-18 23:46 38.603029 -103.294903 306 30030ft 494kts
18-Jun-18 23:47 38.691879 -103.428762 306 30049ft 494kts
18-Jun-18 23:48 38.780523 -103.563826 306 30092ft 494kts
18-Jun-18 23:49 38.876801 -103.690138 315 30118ft 499kts
18-Jun-18 23:50 38.981692 -103.806613 314 30127ft 499kts
18-Jun-18 23:51 39.068937 -103.905051 314 30131ft 499kts
18-Jun-18 23:52 39.189959 -104.043435 313 30142ft 499kts
18-Jun-18 23:53 39.293441 -104.162197 313 30308ft 499kts
18-Jun-18 23:54 39.379479 -104.261347 313 31448ft 494kts
18-Jun-18 23:55 39.499231 -104.399001 313 32212ft 494kts
18-Jun-18 23:56 39.584226 -104.497633 313 32214ft 493kts
18-Jun-18 23:57 39.686504 -104.616898 313 32206ft 493kts
18-Jun-18 23:58 39.796469 -104.765612 307 32197ft 489kts
18-Jun-18 23:59 39.873615 -104.873257 308 32213ft 488kts
19-Jun-18 00:00 39.966934 -105.001962 308 32219ft 487kts
19-Jun-18 00:01 40.060000 -105.130307 307 32219ft 491kts
19-Jun-18 00:02 40.153315 -105.260064 307 32191ft 489kts
19-Jun-18 00:03 40.246384 -105.390085 307 32206ft 488kts
19-Jun-18 00:04 40.338735 -105.519667 307 32227ft 487kts
19-Jun-18 00:05 40.430849 -105.649472 306 32247ft 486kts
19-Jun-18 00:06 40.522977 -105.779863 306 32276ft 486kts
19-Jun-18 00:07 40.614761 -105.910330 306 32321ft 487kts
19-Jun-18 00:08 40.706636 -106.041492 306 32288ft 487kts
19-Jun-18 00:09 40.798119 -106.172677 306 32289ft 485kts
19-Jun-18 00:10 40.889407 -106.304152 306 32285ft 487kts
19-Jun-18 00:11 40.981062 -106.436738 306 32272ft 488kts
19-Jun-18 00:12 41.072396 -106.569450 306 32256ft 488kts
19-Jun-18 00:13 41.163628 -106.702626 306 32248ft 488kts
19-Jun-18 00:14 41.255027 -106.836601 306 32248ft 489kts
19-Jun-18 00:15 41.346109 -106.970731 306 32247ft 488kts
19-Jun-18 00:16 41.436752 -107.104824 305 32247ft 488kts
19-Jun-18 00:17 41.527529 -107.239724 305 32247ft 487kts
19-Jun-18 00:18 41.618024 -107.374224 305 32248ft 487kts
19-Jun-18 00:19 41.708189 -107.509913 305 32246ft 487kts
19-Jun-18 00:20 41.794486 -107.648361 300 32245ft 481kts
19-Jun-18 00:21 41.871455 -107.794655 299 32238ft 481kts
19-Jun-18 00:22 41.949518 -107.941269 299 32232ft 482kts
19-Jun-18 00:23 42.028315 -108.086938 299 32227ft 482kts
19-Jun-18 00:24 42.106637 -108.233295 299 32219ft 482kts
19-Jun-18 00:25 42.184810 -108.380386 299 32211ft 481kts
19-Jun-18 00:26 42.262544 -108.527398 299 32203ft 482kts
19-Jun-18 00:27 42.340129 -108.674855 299 32198ft 482kts
19-Jun-18 00:28 42.417753 -108.823117 299 32207ft 482kts
19-Jun-18 00:29 42.494886 -108.971173 299 32206ft 482kts
19-Jun-18 00:30 42.571814 -109.119558 298 32212ft 481kts
19-Jun-18 00:31 42.648667 -109.268541 298 32231ft 480kts
19-Jun-18 00:32 42.725117 -109.417483 298 32248ft 481kts
19-Jun-18 00:33 42.801350 -109.566751 298 32262ft 481kts
19-Jun-18 00:34 42.877664 -109.716922 299 32267ft 481kts
19-Jun-18 00:35 42.953565 -109.867042 299 32268ft 481kts
19-Jun-18 00:36 43.029429 -110.017881 299 32265ft 483kts
19-Jun-18 00:37 43.105532 -110.169919 300 32253ft 484kts
19-Jun-18 00:38 43.181457 -110.322394 300 32244ft 485kts
19-Jun-18 00:39 43.257160 -110.475203 300 32246ft 486kts
19-Jun-18 00:40 43.333088 -110.629290 300 32243ft 486kts
19-Jun-18 00:41 43.408605 -110.783318 300 32241ft 486kts
19-Jun-18 00:42 43.483988 -110.937921 300 32239ft 487kts
19-Jun-18 00:43 43.559569 -111.093704 300 32236ft 488kts
19-Jun-18 00:44 43.634769 -111.249547 301 32231ft 489kts
19-Jun-18 00:45 43.709948 -111.406187 301 32220ft 490kts
19-Jun-18 00:46 43.785433 -111.564298 301 32195ft 492kts
19-Jun-18 00:47 43.860650 -111.722714 301 32181ft 493kts
19-Jun-18 00:48 43.936338 -111.882231 302 32181ft 494kts
19-Jun-18 00:49 44.011307 -112.042071 301 32179ft 495kts
19-Jun-18 00:50 44.086026 -112.202549 301 32182ft 495kts
19-Jun-18 00:51 44.165366 -112.359619 304 32177ft 495kts
19-Jun-18 00:52 44.244933 -112.515807 304 32176ft 495kts
19-Jun-18 00:53 44.324458 -112.672224 305 32173ft 494kts
19-Jun-18 00:54 44.403907 -112.829072 305 32168ft 493kts
19-Jun-18 00:55 44.482549 -112.985944 305 32167ft 492kts
19-Jun-18 00:56 44.560826 -113.142975 305 32164ft 491kts
19-Jun-18 00:57 44.639029 -113.300735 305 32163ft 491kts
19-Jun-18 00:58 44.716638 -113.458157 305 32164ft 490kts
19-Jun-18 00:59 44.793921 -113.615790 305 32163ft 490kts
19-Jun-18 01:00 44.871635 -113.774229 306 32162ft 490kts
19-Jun-18 01:01 44.948421 -113.933031 305 32161ft 491kts
19-Jun-18 01:02 45.024964 -114.092293 305 32161ft 488kts
19-Jun-18 01:03 45.098668 -114.254080 304 32163ft 488kts
19-Jun-18 01:04 45.171720 -114.416185 304 32162ft 489kts
19-Jun-18 01:05 45.245113 -114.577863 305 32169ft 488kts
19-Jun-18 01:06 45.318719 -114.740521 305 32166ft 488kts
19-Jun-18 01:07 45.391361 -114.902891 305 32160ft 487kts
19-Jun-18 01:08 45.463646 -115.065483 305 32144ft 486kts
19-Jun-18 01:09 45.535801 -115.228747 305 32141ft 485kts
19-Jun-18 01:10 45.607335 -115.391549 305 32136ft 484kts
19-Jun-18 01:11 45.678477 -115.554396 305 32130ft 483kts
19-Jun-18 01:12 45.749617 -115.718188 305 32126ft 483kts
19-Jun-18 01:13 45.820305 -115.881892 305 32127ft 484kts
19-Jun-18 01:14 45.890759 -116.046013 305 32129ft 484kts
19-Jun-18 01:15 45.961229 -116.211158 305 32129ft 484kts
19-Jun-18 01:16 46.031235 -116.376158 305 32126ft 484kts
19-Jun-18 01:17 46.101380 -116.542484 304 32119ft 485kts
19-Jun-18 01:18 46.171187 -116.709012 304 32115ft 486kts
19-Jun-18 01:19 46.240930 -116.876383 304 32104ft 488kts
19-Jun-18 01:20 46.310864 -117.045241 304 32101ft 488kts
19-Jun-18 01:21 46.380386 -117.214163 304 32103ft 489kts
19-Jun-18 01:22 46.449677 -117.383538 303 32116ft 489kts
19-Jun-18 01:23 46.518991 -117.553978 303 32127ft 489kts
19-Jun-18 01:24 46.587863 -117.724422 303 32129ft 489kts
19-Jun-18 01:25 46.656456 -117.895227 303 32129ft 489kts
19-Jun-18 01:26 46.725072 -118.067152 302 32130ft 489kts
19-Jun-18 01:27 46.793074 -118.238643 302 32138ft 489kts
19-Jun-18 01:28 46.860834 -118.410591 302 32130ft 489kts
19-Jun-18 01:29 46.928559 -118.583550 301 32131ft 489kts
19-Jun-18 01:30 46.995822 -118.756430 301 32129ft 489kts
19-Jun-18 01:31 47.062863 -118.929395 301 32130ft 488kts
19-Jun-18 01:32 47.129872 -119.103326 300 32129ft 488kts
19-Jun-18 01:33 47.196028 -119.277505 300 32129ft 488kts
19-Jun-18 01:34 47.249416 -119.461059 291 32125ft 490kts
19-Jun-18 01:35 47.294931 -119.649498 291 32120ft 485kts
19-Jun-18 01:36 47.341319 -119.836061 291 32121ft 485kts
19-Jun-18 01:37 47.388437 -120.022234 290 32121ft 485kts
19-Jun-18 01:38 47.434689 -120.209223 290 32120ft 483kts
19-Jun-18 01:39 47.480337 -120.395669 290 32121ft 483kts
19-Jun-18 01:40 47.525840 -120.583152 290 32134ft 483kts
19-Jun-18 01:41 47.570928 -120.770450 289 32154ft 483kts
19-Jun-18 01:42 47.615674 -120.957939 289 32180ft 483kts
19-Jun-18 01:43 47.660241 -121.146289 289 32184ft 483kts
19-Jun-18 01:44 47.704361 -121.334370 288 32181ft 483kts
19-Jun-18 01:45 47.748157 -121.522694 288 32154ft 483kts
19-Jun-18 01:46 47.791814 -121.712074 288 32137ft 483kts
19-Jun-18 01:47 47.835384 -121.900607 288 32127ft 483kts
19-Jun-18 01:48 47.878060 -122.090003 287 32121ft 483kts
19-Jun-18 01:49 47.920517 -122.280418 287 32118ft 483kts
19-Jun-18 01:50 47.954220 -122.473818 283 32115ft 483kts
19-Jun-18 01:51 47.986114 -122.668339 283 32105ft 483kts
19-Jun-18 01:52 48.019179 -122.863730 284 32110ft 487kts
19-Jun-18 01:53 48.052418 -123.060253 284 32108ft 489kts
19-Jun-18 01:54 48.084945 -123.257626 284 32099ft 490kts
19-Jun-18 01:55 48.117280 -123.456354 283 32102ft 490kts
19-Jun-18 01:56 48.149134 -123.654502 283 32101ft 490kts
19-Jun-18 01:57 48.180707 -123.853301 283 32079ft 489kts
19-Jun-18 01:58 48.211825 -124.051588 283 32083ft 489kts
19-Jun-18 01:59 48.243153 -124.250215 283 32095ft 491kts
19-Jun-18 02:00 48.273547 -124.450684 283 32110ft 492kts
19-Jun-18 02:01 48.318194 -124.642691 306 32107ft 490kts
19-Jun-18 02:02 48.412354 -124.789279 319 32088ft 487kts
19-Jun-18 02:03 48.511776 -124.928921 318 32070ft 487kts
19-Jun-18 02:04 48.610391 -125.069225 319 32073ft 488kts
19-Jun-18 02:05 48.708595 -125.210333 319 32056ft 487kts
19-Jun-18 02:06 48.806803 -125.352584 319 32047ft 488kts
19-Jun-18 02:07 48.904812 -125.494664 319 32042ft 488kts
19-Jun-18 02:08 49.002204 -125.637951 319 32040ft 488kts
19-Jun-18 02:09 49.099645 -125.782731 319 32040ft 488kts
19-Jun-18 02:10 49.196182 -125.928501 319 32038ft 488kts
19-Jun-18 02:11 49.292491 -126.074809 320 32034ft 488kts
19-Jun-18 02:12 49.389668 -126.220916 320 32029ft 488kts
19-Jun-18 02:13 49.485978 -126.367878 320 32025ft 488kts
19-Jun-18 02:14 49.582008 -126.515464 320 32024ft 488kts
19-Jun-18 02:15 49.678291 -126.664330 319 32026ft 489kts
19-Jun-18 02:16 49.758102 -126.788411 319 32030ft 489kts
19-Jun-18 02:17 49.853706 -126.937860 319 32037ft 489kts
19-Jun-18 02:18 49.965176 -127.113220 319 32046ft 489kts
19-Jun-18 02:19 50.060730 -127.263730 319 32074ft 491kts
19-Jun-18 02:20 50.140160 -127.390429 318 32074ft 490kts
19-Jun-18 02:21 50.233735 -127.546531 311 32075ft 496kts
19-Jun-18 02:22 50.305395 -127.774923 296 32076ft 506kts
19-Jun-18 02:23 50.348676 -127.945439 296 32075ft 506kts
19-Jun-18 02:24 50.410656 -128.183917 296 32077ft 505kts
19-Jun-18 02:25 50.463593 -128.388061 296 32077ft 506kts
19-Jun-18 02:26 50.507148 -128.558896 295 32077ft 506kts
19-Jun-18 02:27 50.559177 -128.764932 294 32075ft 506kts
19-Jun-18 02:28 50.610649 -128.970670 294 32075ft 506kts
19-Jun-18 02:29 50.661897 -129.177429 294 32074ft 505kts
19-Jun-18 02:30 50.712565 -129.383774 293 32070ft 505kts
19-Jun-18 02:31 50.762874 -129.590583 293 32069ft 505kts
19-Jun-18 02:32 50.813005 -129.798622 293 32068ft 506kts
19-Jun-18 02:33 50.862600 -130.006409 293 32067ft 505kts
19-Jun-18 02:34 50.911802 -130.214517 292 32067ft 505kts
19-Jun-18 02:35 50.960804 -130.423834 292 32068ft 505kts
19-Jun-18 02:36 51.009281 -130.632922 291 32068ft 505kts
19-Jun-18 02:37 51.057379 -130.842431 291 32068ft 505kts
19-Jun-18 02:38 51.105285 -131.053176 291 32069ft 505kts
19-Jun-18 02:39 51.152632 -131.263563 290 32075ft 505kts
19-Jun-18 02:40 51.199642 -131.474564 290 32079ft 506kts
19-Jun-18 02:41 51.246426 -131.686693 290 32080ft 506kts
19-Jun-18 02:42 51.292753 -131.898981 289 32102ft 506kts
19-Jun-18 02:43 51.338674 -132.111440 288 32106ft 507kts
19-Jun-18 02:44 51.384418 -132.325426 288 32088ft 507kts
19-Jun-18 02:45 51.429639 -132.539188 288 32087ft 507kts
19-Jun-18 02:46 51.474468 -132.753340 288 32088ft 507kts
19-Jun-18 02:47 51.519044 -132.968592 287 32090ft 507kts
19-Jun-18 02:48 51.563046 -133.183393 287 32091ft 507kts
19-Jun-18 02:49 51.606822 -133.399409 286 32092ft 507kts
19-Jun-18 02:50 51.650030 -133.614997 286 32093ft 507kts
19-Jun-18 02:51 51.692873 -133.831149 286 32094ft 507kts
19-Jun-18 02:52 51.735399 -134.048110 285 32092ft 507kts
19-Jun-18 02:53 51.777436 -134.265033 285 32092ft 507kts
19-Jun-18 02:54 51.819082 -134.482396 285 32094ft 507kts
19-Jun-18 02:55 51.860459 -134.700864 285 32095ft 507kts
19-Jun-18 02:56 51.901271 -134.918858 284 32096ft 507kts
19-Jun-18 02:57 51.942260 -135.137188 284 32097ft 507kts
19-Jun-18 02:58 51.981926 -135.356759 283 32099ft 507kts
19-Jun-18 02:59 52.026388 -135.573805 288 32099ft 509kts
19-Jun-18 03:00 52.079128 -135.787072 288 32092ft 509kts
19-Jun-18 03:01 52.130286 -136.002034 288 32162ft 509kts
19-Jun-18 03:02 52.182334 -136.216145 287 32162ft 509kts
19-Jun-18 03:03 52.233047 -136.431223 287 32163ft 508kts
19-Jun-18 03:04 52.283369 -136.647383 286 32130ft 508kts
19-Jun-18 03:05 52.333137 -136.863394 286 32130ft 508kts
19-Jun-18 03:06 52.382464 -137.079700 285 32163ft 508kts
19-Jun-18 03:07 52.431543 -137.297140 285 33010ft 507kts
19-Jun-18 03:08 52.479804 -137.513208 285 34047ft 505kts
19-Jun-18 03:09 52.527716 -137.729927 284 34167ft 504kts
19-Jun-18 03:10 52.575263 -137.947264 284 34169ft 505kts
19-Jun-18 03:11 52.622310 -138.164570 283 34155ft 505kts
19-Jun-18 03:12 52.668913 -138.382188 283 34157ft 504kts
19-Jun-18 03:13 52.715303 -138.601133 282 34158ft 505kts
19-Jun-18 03:14 52.761099 -138.819609 281 34159ft 504kts
19-Jun-18 03:15 52.806522 -139.038695 281 34160ft 505kts
19-Jun-18 03:16 52.851723 -139.259127 280 34161ft 504kts
19-Jun-18 03:17 52.896286 -139.478878 280 34163ft 504kts
19-Jun-18 03:18 52.940968 -139.698945 279 34160ft 504kts
19-Jun-18 03:19 52.984438 -139.920539 279 34144ft 504kts
19-Jun-18 03:20 53.046231 -140.133982 292 34144ft 523kts
19-Jun-18 03:21 53.122556 -140.340371 292 34145ft 522kts
19-Jun-18 03:22 53.197155 -140.547520 292 34131ft 523kts
19-Jun-18 03:23 53.272296 -140.754902 292 34132ft 522kts
19-Jun-18 03:24 53.346522 -140.964168 291 34133ft 522kts
19-Jun-18 03:25 53.420081 -141.173657 291 34134ft 521kts
19-Jun-18 03:26 53.493181 -141.383666 290 34135ft 522kts
19-Jun-18 03:27 53.566182 -141.595171 290 34136ft 522kts
19-Jun-18 03:28 53.638571 -141.806718 289 34136ft 521kts
19-Jun-18 03:29 53.710406 -142.018468 289 34133ft 521kts
19-Jun-18 03:30 53.782062 -142.231511 288 34134ft 521kts
19-Jun-18 03:31 53.853129 -142.444647 288 34135ft 520kts
19-Jun-18 03:32 53.923836 -142.658569 288 34136ft 520kts
19-Jun-18 03:33 53.994375 -142.873867 287 34137ft 521kts
19-Jun-18 03:34 54.064286 -143.089125 287 34137ft 519kts
19-Jun-18 03:35 54.133637 -143.304598 286 34138ft 520kts
19-Jun-18 03:36 54.203086 -143.522307 286 34138ft 521kts
19-Jun-18 03:37 54.271894 -143.739959 286 34138ft 521kts
19-Jun-18 03:38 54.340482 -143.958888 285 34138ft 520kts
19-Jun-18 03:39 54.408394 -144.177652 285 34138ft 520kts
19-Jun-18 03:40 54.475842 -144.396919 285 34139ft 519kts
19-Jun-18 03:41 54.542813 -144.616645 285 34139ft 516kts
19-Jun-18 03:42 54.609022 -144.835890 285 34139ft 515kts
19-Jun-18 03:43 54.674668 -145.055277 285 34139ft 514kts
19-Jun-18 03:44 54.739959 -145.275524 285 34139ft 513kts
19-Jun-18 03:45 54.804570 -145.495524 285 34139ft 513kts
19-Jun-18 03:46 54.868696 -145.715922 285 34136ft 512kts
19-Jun-18 03:47 54.932577 -145.937569 285 34135ft 511kts
19-Jun-18 03:48 54.995639 -146.158510 286 34134ft 508kts
19-Jun-18 03:49 55.057969 -146.378872 286 34124ft 508kts
19-Jun-18 03:50 55.120075 -146.600592 286 34116ft 507kts
19-Jun-18 03:51 55.181503 -146.822033 286 34116ft 506kts
19-Jun-18 03:52 55.242432 -147.043762 286 34115ft 505kts
19-Jun-18 03:53 55.303113 -147.266753 286 34115ft 505kts
19-Jun-18 03:54 55.362938 -147.488761 286 34111ft 503kts
19-Jun-18 03:55 55.422261 -147.711060 286 34098ft 502kts
19-Jun-18 03:56 55.481306 -147.934529 286 34096ft 502kts
19-Jun-18 03:57 55.539650 -148.157513 286 34095ft 500kts
19-Jun-18 03:58 55.597487 -148.380760 286 34095ft 500kts
19-Jun-18 03:59 55.655119 -148.605473 286 34053ft 500kts
19-Jun-18 04:00 55.712005 -148.829522 286 34051ft 499kts
19-Jun-18 04:01 55.768479 -149.054214 287 34042ft 498kts
19-Jun-18 04:02 55.824554 -149.279573 287 34039ft 497kts
19-Jun-18 04:03 55.880133 -149.504449 288 34019ft 497kts
19-Jun-18 04:04 55.935335 -149.729691 287 34020ft 496kts
19-Jun-18 04:05 55.989564 -149.956272 287 34028ft 495kts
19-Jun-18 04:06 56.028838 -150.188515 277 34028ft 486kts
19-Jun-18 04:07 56.059484 -150.424993 277 34027ft 487kts
19-Jun-18 04:08 56.091497 -150.660602 278 34027ft 489kts
19-Jun-18 04:09 56.124907 -150.896203 278 34026ft 488kts
19-Jun-18 04:10 56.157009 -151.133575 278 34025ft 488kts
19-Jun-18 04:11 56.188390 -151.370419 277 34019ft 489kts
19-Jun-18 04:12 56.219275 -151.607494 277 34016ft 488kts
19-Jun-18 04:13 56.249821 -151.845881 277 34015ft 488kts
19-Jun-18 04:14 56.279803 -152.083784 277 34015ft 488kts
19-Jun-18 04:15 56.309299 -152.321822 277 34015ft 488kts
19-Jun-18 04:16 56.338478 -152.561461 277 34017ft 489kts
19-Jun-18 04:17 56.367105 -152.800606 276 34017ft 489kts
19-Jun-18 04:18 56.395307 -153.040436 276 34017ft 489kts
19-Jun-18 04:19 56.423146 -153.281526 276 34017ft 489kts
19-Jun-18 04:20 56.450270 -153.520749 275 34014ft 484kts
19-Jun-18 04:21 56.476802 -153.759135 275 34015ft 484kts
19-Jun-18 04:22 56.502949 -153.998517 275 34016ft 484kts
19-Jun-18 04:23 56.528556 -154.237487 275 34012ft 484kts
19-Jun-18 04:24 56.553716 -154.476892 274 34011ft 484kts
19-Jun-18 04:25 56.578542 -154.717867 274 34008ft 485kts
19-Jun-18 04:26 56.602845 -154.958585 274 34002ft 486kts
19-Jun-18 04:27 56.626714 -155.199887 274 33994ft 486kts
19-Jun-18 04:28 56.650141 -155.441823 274 33973ft 485kts
19-Jun-18 04:29 56.673040 -155.683365 274 33956ft 485kts
19-Jun-18 04:30 56.695525 -155.925825 273 33939ft 485kts
19-Jun-18 04:31 56.717460 -156.167686 273 33923ft 485kts
19-Jun-18 04:32 56.738952 -156.410142 273 33909ft 486kts
19-Jun-18 04:33 56.760072 -156.654002 273 33896ft 487kts
19-Jun-18 04:34 56.780700 -156.897959 273 33861ft 487kts
19-Jun-18 04:35 56.800854 -157.142203 273 33861ft 487kts
19-Jun-18 04:36 56.820589 -157.387455 273 33861ft 488kts
19-Jun-18 04:37 56.839791 -157.632273 272 33852ft 487kts
19-Jun-18 04:38 56.858481 -157.876948 272 33849ft 487kts
19-Jun-18 04:39 56.876772 -158.122956 272 33846ft 488kts
19-Jun-18 04:40 56.894555 -158.368811 272 33841ft 489kts
19-Jun-18 04:41 56.911883 -158.615300 272 33839ft 490kts
19-Jun-18 04:42 56.926025 -158.821977 272 33840ft 490kts
19-Jun-18 04:43 56.945211 -159.110829 272 33841ft 490kts
19-Jun-18 04:44 56.961146 -159.359007 272 33839ft 491kts
19-Jun-18 04:45 56.977415 -159.608424 272 33836ft 491kts
19-Jun-18 04:46 56.989418 -159.816000 272 33833ft 492kts
19-Jun-18 04:47 57.011848 -160.106056 279 33832ft 497kts
19-Jun-18 04:48 57.040028 -160.311836 280 33830ft 497kts
19-Jun-18 04:49 57.077155 -160.600088 280 33801ft 497kts
19-Jun-18 04:50 57.110262 -160.848002 280 33798ft 498kts
19-Jun-18 04:51 57.136601 -161.054569 280 33797ft 498kts
19-Jun-18 04:52 57.167461 -161.303127 280 33795ft 498kts
19-Jun-18 04:53 57.197883 -161.553017 280 33793ft 499kts
19-Jun-18 04:54 57.227772 -161.803062 280 33791ft 500kts
19-Jun-18 04:55 57.257285 -162.054579 280 33788ft 500kts
19-Jun-18 04:56 57.286234 -162.305924 280 33767ft 500kts
19-Jun-18 04:57 57.314667 -162.557464 280 33764ft 500kts
19-Jun-18 04:58 57.342680 -162.810215 280 33763ft 500kts
19-Jun-18 04:59 57.370060 -163.062178 280 33747ft 499kts
19-Jun-18 05:00 57.396936 -163.314625 280 33747ft 500kts
19-Jun-18 05:01 57.423448 -163.568602 280 33742ft 501kts
19-Jun-18 05:02 57.449399 -163.822593 280 33742ft 502kts
19-Jun-18 05:03 57.474853 -164.077048 280 33743ft 502kts
19-Jun-18 05:04 57.499892 -164.332883 279 33734ft 502kts
19-Jun-18 05:05 57.524301 -164.587823 279 33733ft 501kts
19-Jun-18 05:06 57.548155 -164.842704 279 33731ft 500kts
19-Jun-18 05:07 57.571525 -165.098251 279 33730ft 499kts
19-Jun-18 05:08 57.594320 -165.353471 279 33733ft 500kts
19-Jun-18 05:09 57.616599 -165.608992 279 33732ft 501kts
19-Jun-18 05:10 57.638520 -165.866706 279 33726ft 502kts
19-Jun-18 05:11 57.659853 -166.124059 279 33704ft 502kts
19-Jun-18 05:12 57.680654 -166.381410 279 33720ft 502kts
19-Jun-18 05:13 57.700989 -166.639835 279 33721ft 501kts
19-Jun-18 05:14 57.720679 -166.897091 279 33720ft 500kts
19-Jun-18 05:15 57.739865 -167.154751 279 33720ft 501kts
19-Jun-18 05:16 57.758625 -167.414035 279 33719ft 502kts
19-Jun-18 05:17 57.776838 -167.673396 279 33719ft 504kts
19-Jun-18 05:18 57.794582 -167.934079 278 33718ft 505kts
19-Jun-18 05:19 57.811886 -168.196163 278 33717ft 505kts
19-Jun-18 05:20 57.828570 -168.457357 278 33717ft 504kts
19-Jun-18 05:21 57.844733 -168.719059 278 33717ft 503kts
19-Jun-18 05:22 57.860254 -168.979292 278 33712ft 502kts
19-Jun-18 05:23 57.875238 -169.239595 278 33712ft 502kts
19-Jun-18 05:24 57.889765 -169.501515 278 33711ft 503kts
19-Jun-18 05:25 57.903742 -169.763419 278 33708ft 505kts
19-Jun-18 05:26 57.917206 -170.026009 277 33708ft 506kts
19-Jun-18 05:27 57.931004 -170.290048 277 33712ft 506kts
19-Jun-18 05:28 57.942880 -170.553161 277 33713ft 504kts
19-Jun-18 05:29 57.949544 -170.816134 268 33710ft 506kts
19-Jun-18 05:30 57.931627 -171.079200 262 33714ft 506kts
19-Jun-18 05:31 57.911651 -171.341069 263 33715ft 507kts
19-Jun-18 05:32 57.894067 -171.603878 264 33716ft 508kts
19-Jun-18 05:33 57.875467 -171.867968 263 33726ft 509kts
19-Jun-18 05:34 57.855872 -172.131565 263 33729ft 510kts
19-Jun-18 05:35 57.835711 -172.394520 263 33733ft 509kts
19-Jun-18 05:36 57.814989 -172.657305 262 33736ft 506kts
19-Jun-18 05:37 57.793908 -172.917548 262 33740ft 504kts
19-Jun-18 05:38 57.772379 -173.176299 262 33746ft 503kts
19-Jun-18 05:39 57.750282 -173.435544 261 33729ft 503kts
19-Jun-18 05:40 57.727692 -173.693921 261 33731ft 504kts
19-Jun-18 05:41 57.704490 -173.952917 261 33734ft 504kts
19-Jun-18 05:42 57.680800 -174.211176 261 33737ft 504kts
19-Jun-18 05:43 57.656652 -174.468370 260 33740ft 502kts
19-Jun-18 05:44 57.632020 -174.724813 260 33743ft 499kts
19-Jun-18 05:45 57.607083 -174.978790 260 33747ft 497kts
19-Jun-18 05:46 57.581734 -175.231445 260 33750ft 496kts
19-Jun-18 05:47 57.555860 -175.483971 260 33753ft 495kts
19-Jun-18 05:48 57.529588 -175.735128 259 33757ft 495kts
19-Jun-18 05:49 57.502793 -175.986151 259 33957ft 495kts
19-Jun-18 05:50 57.475432 -176.237313 259 34000ft 493kts
19-Jun-18 05:51 57.447796 -176.486250 259 34004ft 492kts
19-Jun-18 05:52 57.419749 -176.734136 259 34005ft 490kts
19-Jun-18 05:53 57.391242 -176.981393 259 34006ft 488kts
19-Jun-18 05:54 57.362432 -177.226700 259 34007ft 487kts
19-Jun-18 05:55 57.333187 -177.471309 258 33930ft 487kts
19-Jun-18 05:56 57.303397 -177.716000 258 33927ft 487kts
19-Jun-18 05:57 57.273216 -177.959810 258 33933ft 486kts
19-Jun-18 05:58 57.242682 -178.202211 258 33938ft 483kts
19-Jun-18 05:59 57.211718 -178.443893 258 33943ft 482kts
19-Jun-18 06:00 57.180534 -178.683387 258 33948ft 480kts
19-Jun-18 06:01 57.148877 -178.922591 258 33952ft 479kts
19-Jun-18 06:02 57.116964 -179.159932 258 33955ft 477kts
19-Jun-18 06:03 57.084701 -179.396177 258 33959ft 476kts
19-Jun-18 06:04 57.052603 -179.632819 257 33962ft 475kts
19-Jun-18 06:05 57.019044 -179.867247 257 33966ft 475kts
19-Jun-18 06:06 56.981126 179.901109 251 34029ft 475kts
19-Jun-18 06:07 56.930553 179.677174 249 34096ft 474kts
19-Jun-18 06:08 56.880762 179.454613 250 34098ft 473kts
19-Jun-18 06:09 56.832719 179.231429 251 34101ft 472kts
19-Jun-18 06:10 56.783755 179.008862 250 34104ft 471kts
19-Jun-18 06:11 56.734230 178.787867 249 34106ft 471kts
19-Jun-18 06:12 56.684437 178.568217 249 34109ft 469kts
19-Jun-18 06:13 56.634213 178.348999 249 34111ft 468kts
19-Jun-18 06:14 56.583896 178.131599 249 34114ft 467kts
19-Jun-18 06:15 56.533324 177.915334 249 34116ft 466kts
19-Jun-18 06:16 56.482316 177.699351 248 34119ft 466kts
19-Jun-18 06:17 56.431076 177.484563 248 34117ft 466kts
19-Jun-18 06:18 56.379377 177.269978 248 34119ft 466kts
19-Jun-18 06:19 56.327134 177.055272 247 34121ft 467kts
19-Jun-18 06:20 56.274638 176.841625 247 34123ft 466kts
19-Jun-18 06:21 56.221846 176.628858 247 34125ft 466kts
19-Jun-18 06:22 56.168625 176.416418 247 34127ft 465kts
19-Jun-18 06:23 56.115341 176.205752 246 34130ft 463kts
19-Jun-18 06:24 56.061596 175.995254 246 34132ft 463kts
19-Jun-18 06:25 56.007685 175.786088 246 34134ft 463kts
19-Jun-18 06:26 55.953446 175.577622 246 34135ft 464kts
19-Jun-18 06:27 55.898692 175.369084 245 34137ft 463kts
19-Jun-18 06:28 55.843712 175.161618 245 34144ft 463kts
19-Jun-18 06:29 55.788320 174.954518 245 35065ft 466kts
19-Jun-18 06:30 55.732174 174.746490 244 35989ft 467kts
19-Jun-18 06:31 55.675564 174.538652 244 36143ft 468kts
19-Jun-18 06:32 55.618602 174.331407 244 36144ft 469kts
19-Jun-18 06:33 55.561025 174.123817 243 36145ft 469kts
19-Jun-18 06:34 55.503296 173.917517 243 36144ft 469kts
19-Jun-18 06:35 55.445287 173.712067 243 36145ft 469kts
19-Jun-18 06:36 55.386655 173.506241 243 36146ft 470kts
19-Jun-18 06:37 55.327808 173.301470 243 36146ft 470kts
19-Jun-18 06:38 55.268588 173.097197 242 36147ft 471kts
19-Jun-18 06:39 55.208703 172.892428 242 36147ft 471kts
19-Jun-18 06:40 55.148648 172.688845 242 36148ft 471kts
19-Jun-18 06:41 55.088311 172.486041 242 36148ft 471kts
19-Jun-18 06:42 55.027854 172.282498 241 36148ft 471kts
19-Jun-18 06:43 54.966391 172.081000 241 36148ft 472kts
19-Jun-18 06:44 54.899682 171.884905 234 36149ft 474kts
19-Jun-18 06:45 54.820794 171.700786 233 36148ft 473kts
19-Jun-18 06:46 54.743120 171.516844 233 36152ft 474kts
19-Jun-18 06:47 54.666290 171.331041 234 36149ft 475kts
19-Jun-18 06:48 54.588804 171.146752 233 36148ft 475kts
19-Jun-18 06:49 54.510744 170.963056 233 36148ft 475kts
19-Jun-18 06:50 54.431988 170.779150 233 36148ft 477kts
19-Jun-18 06:51 54.353116 170.596330 233 36147ft 477kts
19-Jun-18 06:52 54.273721 170.413645 233 36147ft 479kts
19-Jun-18 06:53 54.193684 170.230836 233 36147ft 480kts
19-Jun-18 06:54 54.113542 170.049098 233 36146ft 480kts
19-Jun-18 06:55 54.033102 169.868001 232 36145ft 480kts
19-Jun-18 06:56 53.952138 169.687039 232 36144ft 479kts
19-Jun-18 06:57 53.871589 169.506968 232 36143ft 480kts
19-Jun-18 06:58 53.790081 169.328370 232 36143ft 480kts
19-Jun-18 06:59 53.713787 169.143298 241 36142ft 479kts
19-Jun-18 07:00 53.649614 168.946413 241 36140ft 479kts
19-Jun-18 07:01 53.583477 168.751525 241 36139ft 481kts
19-Jun-18 07:02 53.518081 168.554920 241 36137ft 481kts
19-Jun-18 07:03 53.450943 168.360957 240 36136ft 481kts
19-Jun-18 07:04 53.383517 168.167074 240 36134ft 482kts
19-Jun-18 07:05 53.315246 167.973637 240 36133ft 481kts
19-Jun-18 07:06 53.246864 167.781656 240 36132ft 481kts
19-Jun-18 07:07 53.179231 167.588610 241 36130ft 480kts
19-Jun-18 07:08 53.122624 167.429430 241 36129ft 479kts
19-Jun-18 07:09 53.042771 167.207686 241 36127ft 479kts
19-Jun-18 07:10 52.973790 167.017837 241 36126ft 479kts
19-Jun-18 07:11 52.916309 166.860738 241 36134ft 478kts
19-Jun-18 07:12 52.847109 166.672908 241 36134ft 478kts
19-Jun-18 07:13 52.765861 166.454151 241 36133ft 477kts
19-Jun-18 07:14 52.707877 166.299185 241 36132ft 476kts
19-Jun-18 07:15 52.638187 166.114236 241 36130ft 475kts
19-Jun-18 07:16 52.556407 165.898810 241 36129ft 474kts
19-Jun-18 07:17 52.497991 165.746058 241 36127ft 474kts
19-Jun-18 07:18 52.427563 165.563130 241 36126ft 474kts
19-Jun-18 07:19 52.356748 165.380503 241 36125ft 474kts
19-Jun-18 07:20 52.285746 165.198710 241 36124ft 475kts
19-Jun-18 07:21 52.214373 165.017266 241 36122ft 475kts
19-Jun-18 07:22 52.142471 164.835759 241 36121ft 475kts
19-Jun-18 07:23 52.058571 164.625596 241 36120ft 475kts
19-Jun-18 07:24 51.998525 164.476217 241 36119ft 474kts
19-Jun-18 07:25 51.926265 164.297607 241 36118ft 472kts
19-Jun-18 07:26 51.853918 164.120004 241 36118ft 473kts
19-Jun-18 07:27 51.781710 163.942505 241 36116ft 473kts
19-Jun-18 07:28 51.708263 163.765664 241 36116ft 473kts
19-Jun-18 07:29 51.634946 163.589969 241 36115ft 473kts
19-Jun-18 07:30 51.560921 163.414651 241 36115ft 472kts
19-Jun-18 07:31 51.486853 163.240642 241 36114ft 472kts
19-Jun-18 07:32 51.413521 163.066371 241 36113ft 472kts
19-Jun-18 07:33 51.339565 162.892545 241 36113ft 472kts
19-Jun-18 07:34 51.265251 162.719829 240 36112ft 472kts
19-Jun-18 07:35 51.190327 162.546965 241 36112ft 477kts
19-Jun-18 07:36 51.114562 162.373294 241 36112ft 476kts
19-Jun-18 07:37 51.038813 162.200829 241 36111ft 476kts
19-Jun-18 07:38 50.962734 162.028773 241 36111ft 477kts
19-Jun-18 07:39 50.886100 161.856574 241 36110ft 477kts
19-Jun-18 07:40 50.809437 161.685434 241 36110ft 477kts
19-Jun-18 07:41 50.732477 161.514785 241 36110ft 477kts
19-Jun-18 07:42 50.655092 161.344265 241 36109ft 477kts
19-Jun-18 07:43 50.577653 161.174738 241 36109ft 478kts
19-Jun-18 07:44 50.499857 161.005529 241 36108ft 478kts
19-Jun-18 07:45 50.421661 160.836537 241 36108ft 477kts
19-Jun-18 07:46 50.343763 160.667991 241 36108ft 479kts
19-Jun-18 07:47 50.264675 160.500073 241 36107ft 478kts
19-Jun-18 07:48 50.185674 160.333082 241 36106ft 479kts
19-Jun-18 07:49 50.106204 160.166678 241 36106ft 479kts
19-Jun-18 07:50 50.026106 160.000003 241 36105ft 479kts
19-Jun-18 07:51 49.946885 159.833889 242 36105ft 479kts
19-Jun-18 07:52 49.867414 159.668241 242 36104ft 479kts
19-Jun-18 07:53 49.786760 159.503193 241 36103ft 480kts
19-Jun-18 07:54 49.706152 159.339182 241 36103ft 479kts
19-Jun-18 07:55 49.625581 159.175548 241 36102ft 479kts
19-Jun-18 07:56 49.544345 159.011957 241 36101ft 479kts
19-Jun-18 07:57 49.463739 158.848859 242 36100ft 477kts
19-Jun-18 07:58 49.383367 158.686465 241 36099ft 478kts
19-Jun-18 07:59 49.302553 158.525231 241 36098ft 476kts
19-Jun-18 08:00 49.221172 158.364001 241 36085ft 478kts
19-Jun-18 08:01 49.139704 158.203593 241 36083ft 478kts
19-Jun-18 08:02 49.057937 158.043562 240 36082ft 478kts
19-Jun-18 08:03 48.975762 157.883690 240 36081ft 477kts
19-Jun-18 08:04 48.893748 157.725090 240 36079ft 478kts
19-Jun-18 08:05 48.811437 157.566851 240 36078ft 478kts
19-Jun-18 08:06 48.728594 157.408529 239 36076ft 478kts
19-Jun-18 08:07 48.645824 157.251276 239 36074ft 478kts
19-Jun-18 08:08 48.562593 157.094084 239 36072ft 477kts
19-Jun-18 08:09 48.479479 156.938007 239 36071ft 478kts
19-Jun-18 08:10 48.396225 156.782579 238 36069ft 477kts
19-Jun-18 08:11 48.312571 156.627317 238 36066ft 476kts
19-Jun-18 08:12 48.229054 156.473215 238 36065ft 476kts
19-Jun-18 08:13 48.145396 156.319699 237 36062ft 476kts
19-Jun-18 08:14 48.061346 156.166329 237 36060ft 475kts
19-Jun-18 08:15 47.977333 156.013922 237 36058ft 475kts
19-Jun-18 08:16 47.893076 155.861929 237 36056ft 476kts
19-Jun-18 08:17 47.808337 155.709926 236 36054ft 476kts
19-Jun-18 08:18 47.723749 155.559030 236 36050ft 475kts
19-Jun-18 08:19 47.638910 155.408536 236 36048ft 476kts
19-Jun-18 08:20 47.553727 155.258272 235 36004ft 474kts
19-Jun-18 08:21 47.468757 155.109212 235 36000ft 474kts
19-Jun-18 08:22 47.383390 154.960279 235 35997ft 474kts
19-Jun-18 08:23 47.298216 154.812492 234 35993ft 473kts
19-Jun-18 08:24 47.212883 154.665233 234 35990ft 473kts
19-Jun-18 08:25 47.127065 154.517942 234 35986ft 473kts
19-Jun-18 08:26 47.041491 154.371858 234 35983ft 473kts
19-Jun-18 08:27 46.955704 154.226201 233 35980ft 472kts
19-Jun-18 08:28 46.869396 154.080433 233 35977ft 473kts
19-Jun-18 08:29 46.783282 153.935756 233 35973ft 472kts
19-Jun-18 08:30 46.697165 153.791867 232 35971ft 471kts
19-Jun-18 08:31 46.610498 153.647804 232 35968ft 472kts
19-Jun-18 08:32 46.523967 153.504721 232 35964ft 472kts
19-Jun-18 08:33 46.436897 153.361497 232 35962ft 472kts
19-Jun-18 08:34 46.350336 153.219111 232 35959ft 471kts
19-Jun-18 08:35 46.263104 153.077649 232 35956ft 471kts
19-Jun-18 08:36 46.175298 152.936498 231 35953ft 471kts
19-Jun-18 08:37 46.087071 152.796920 230 35951ft 471kts
19-Jun-18 08:38 45.998699 152.657859 230 35949ft 471kts
19-Jun-18 08:39 45.910576 152.517747 230 35946ft 472kts
19-Jun-18 08:40 45.822267 152.378893 230 35944ft 471kts
19-Jun-18 08:41 45.733297 152.240048 230 35942ft 472kts
19-Jun-18 08:42 45.644466 152.102164 229 35940ft 472kts
19-Jun-18 08:43 45.555462 151.964707 229 35938ft 472kts
19-Jun-18 08:44 45.465981 151.827211 229 35936ft 472kts
19-Jun-18 08:45 45.376531 151.690450 229 35934ft 473kts
19-Jun-18 08:46 45.286768 151.553904 228 35933ft 473kts
19-Jun-18 08:47 45.196433 151.417153 228 35930ft 473kts
19-Jun-18 08:48 45.106248 151.281310 228 35929ft 474kts
19-Jun-18 08:49 45.015760 151.145690 227 35927ft 475kts
19-Jun-18 08:50 44.924735 151.009932 227 35925ft 475kts
19-Jun-18 08:51 44.833744 150.874895 227 35924ft 475kts
19-Jun-18 08:52 44.742526 150.740191 227 35923ft 476kts
19-Jun-18 08:53 44.650785 150.605361 226 35922ft 477kts
19-Jun-18 08:54 44.559010 150.471152 226 35920ft 478kts
19-Jun-18 08:55 44.466589 150.336650 226 35919ft 478kts
19-Jun-18 08:56 44.374114 150.202713 226 35918ft 479kts
19-Jun-18 08:57 44.281357 150.069046 225 35916ft 480kts
19-Jun-18 08:58 44.188049 149.935195 225 35916ft 480kts
19-Jun-18 08:59 44.094821 149.802122 225 35915ft 480kts
19-Jun-18 09:00 44.001529 149.669596 225 35918ft 480kts
19-Jun-18 09:01 43.907753 149.537017 225 35959ft 480kts
19-Jun-18 09:02 43.814296 149.405520 225 35958ft 479kts
19-Jun-18 09:03 43.720809 149.274601 225 35958ft 478kts
19-Jun-18 09:04 43.626888 149.143694 225 35957ft 478kts
19-Jun-18 09:05 43.533122 149.013619 225 35957ft 479kts
19-Jun-18 09:06 43.439185 148.883910 225 35956ft 479kts
19-Jun-18 09:07 43.344750 148.754123 225 35955ft 479kts
19-Jun-18 09:08 43.250456 148.625132 225 35956ft 479kts
19-Jun-18 09:09 43.155628 148.496008 224 35956ft 479kts
19-Jun-18 09:10 43.060984 148.367728 224 35983ft 479kts
19-Jun-18 09:11 42.965796 148.239303 224 35987ft 480kts
19-Jun-18 09:12 42.870748 148.111654 224 35986ft 480kts
19-Jun-18 09:13 42.775559 147.984398 225 35970ft 480kts
19-Jun-18 09:14 42.679633 147.856751 225 35964ft 482kts
19-Jun-18 09:15 42.583943 147.729436 225 35969ft 482kts
19-Jun-18 09:16 42.487831 147.602884 225 35967ft 482kts
19-Jun-18 09:17 42.391203 147.476293 225 35967ft 482kts
19-Jun-18 09:18 42.294869 147.350421 225 35967ft 482kts
19-Jun-18 09:19 42.198375 147.224911 225 35967ft 482kts
19-Jun-18 09:20 42.102022 147.098762 225 35966ft 482kts
19-Jun-18 09:21 42.005261 146.973746 225 35967ft 482kts
19-Jun-18 09:22 41.908268 146.849094 226 35965ft 483kts
19-Jun-18 09:23 41.810883 146.724545 226 35963ft 483kts
19-Jun-18 09:24 41.713496 146.600606 226 35963ft 483kts
19-Jun-18 09:25 41.616103 146.476241 227 35962ft 483kts
19-Jun-18 09:26 41.518870 146.352602 227 35960ft 483kts
19-Jun-18 09:27 41.421470 146.229670 227 35958ft 483kts
19-Jun-18 09:28 41.323506 146.106616 227 35956ft 483kts
19-Jun-18 09:29 41.225605 145.984165 227 35954ft 484kts
19-Jun-18 09:30 41.127842 145.862433 228 35952ft 481kts
19-Jun-18 09:31 41.029692 145.740706 228 35948ft 482kts
19-Jun-18 09:32 40.948162 145.639993 229 35945ft 481kts
19-Jun-18 09:33 40.833965 145.499547 229 35941ft 481kts
19-Jun-18 09:34 40.751983 145.399117 229 35938ft 481kts
19-Jun-18 09:35 40.637653 145.259391 229 35934ft 480kts
19-Jun-18 09:36 40.555945 145.160014 229 35964ft 479kts
19-Jun-18 09:37 40.457458 145.041167 229 35970ft 479kts
19-Jun-18 09:38 40.377940 144.907375 245 35968ft 461kts
19-Jun-18 09:39 40.311426 144.764342 245 35966ft 459kts
19-Jun-18 09:40 40.244419 144.621958 245 35964ft 457kts
19-Jun-18 09:41 40.178463 144.480346 245 35946ft 456kts
19-Jun-18 09:42 40.111968 144.339380 245 35943ft 453kts
19-Jun-18 09:43 40.045585 144.199566 245 35878ft 453kts
19-Jun-18 09:44 39.979226 144.060460 245 35896ft 452kts
19-Jun-18 09:45 39.912509 143.921228 245 35893ft 452kts
19-Jun-18 09:46 39.845805 143.782639 245 35891ft 452kts
19-Jun-18 09:47 39.778961 143.644369 245 35888ft 452kts
19-Jun-18 09:48 39.711892 143.506244 245 35886ft 450kts
19-Jun-18 09:49 39.645107 143.369299 245 35884ft 449kts
19-Jun-18 09:50 39.578423 143.233150 244 35883ft 447kts
19-Jun-18 09:51 39.511513 143.097125 244 35880ft 445kts
19-Jun-18 09:52 39.444943 142.962360 244 35880ft 444kts
19-Jun-18 09:53 39.378711 142.828127 244 35881ft 442kts
19-Jun-18 09:54 39.311883 142.694209 243 35880ft 442kts
19-Jun-18 09:55 39.245238 142.561395 243 35881ft 441kts
19-Jun-18 09:56 39.168372 142.435198 235 35882ft 450kts
19-Jun-18 09:57 39.086084 142.314712 236 35884ft 447kts
19-Jun-18 09:58 39.004853 142.193670 236 35886ft 447kts
19-Jun-18 09:59 38.923994 142.071816 236 35888ft 447kts
19-Jun-18 10:00 38.843106 141.951146 236 35892ft 444kts
19-Jun-18 10:01 38.762744 141.831876 236 35894ft 442kts
19-Jun-18 10:02 38.682045 141.712564 236 35885ft 442kts
19-Jun-18 10:03 38.601463 141.593869 236 35887ft 442kts
19-Jun-18 10:04 38.520766 141.475447 236 35891ft 442kts
19-Jun-18 10:05 38.439647 141.356848 235 35893ft 442kts
19-Jun-18 10:06 38.358892 141.239207 235 35898ft 441kts
19-Jun-18 10:07 38.278321 141.121753 235 35902ft 440kts
19-Jun-18 10:08 38.197139 141.004702 235 35904ft 440kts
19-Jun-18 10:09 38.132249 140.878933 261 35904ft 418kts
19-Jun-18 10:10 38.121336 140.732670 266 35902ft 416kts
19-Jun-18 10:11 38.107099 140.586841 264 35903ft 415kts
19-Jun-18 10:12 38.091716 140.441415 264 35901ft 416kts
19-Jun-18 10:13 38.075982 140.295771 264 35883ft 415kts
19-Jun-18 10:14 38.061862 140.150739 264 35875ft 414kts
19-Jun-18 10:15 38.047569 140.005774 264 35861ft 415kts
19-Jun-18 10:16 38.033092 139.860300 264 35844ft 414kts
19-Jun-18 10:17 38.019531 139.715259 264 35828ft 415kts
19-Jun-18 10:18 38.004694 139.570446 264 35812ft 414kts
19-Jun-18 10:19 37.989696 139.424929 264 36258ft 415kts
19-Jun-18 10:20 37.975262 139.281220 262 37612ft 408kts
19-Jun-18 10:21 37.960213 139.138844 259 37786ft 406kts
19-Jun-18 10:22 37.920286 139.003961 248 37787ft 410kts
19-Jun-18 10:23 37.873843 138.872568 248 37789ft 409kts
19-Jun-18 10:24 37.827627 138.741001 247 37791ft 407kts
19-Jun-18 10:25 37.782289 138.609837 248 37794ft 407kts
19-Jun-18 10:26 37.736691 138.479383 247 37796ft 406kts
19-Jun-18 10:27 37.690679 138.348744 247 37798ft 406kts
19-Jun-18 10:28 37.644775 138.219078 247 37795ft 405kts
19-Jun-18 10:29 37.598748 138.089611 247 37796ft 405kts
19-Jun-18 10:30 37.552410 137.959834 247 37796ft 405kts
19-Jun-18 10:31 37.506124 137.830766 246 37796ft 405kts
19-Jun-18 10:32 37.459616 137.701632 246 37796ft 406kts
19-Jun-18 10:33 37.412772 137.572116 246 37795ft 406kts
19-Jun-18 10:34 37.365856 137.442946 246 37794ft 406kts
19-Jun-18 10:35 37.318631 137.313477 246 37793ft 407kts
19-Jun-18 10:36 37.271322 137.184319 246 37792ft 407kts
19-Jun-18 10:37 37.224069 137.055230 246 37765ft 407kts
19-Jun-18 10:38 37.176375 136.925965 245 37763ft 407kts
19-Jun-18 10:39 37.128394 136.797175 245 37761ft 409kts
19-Jun-18 10:40 37.080301 136.668409 245 37754ft 408kts
19-Jun-18 10:41 37.031766 136.539476 245 37747ft 409kts
19-Jun-18 10:42 36.983038 136.410667 245 37740ft 410kts
19-Jun-18 10:43 36.934474 136.281675 245 37709ft 410kts
19-Jun-18 10:44 36.885694 136.151949 245 37709ft 411kts
19-Jun-18 10:45 36.836625 136.022836 245 37709ft 413kts
19-Jun-18 10:46 36.787302 135.893722 244 37711ft 412kts
19-Jun-18 10:47 36.737701 135.764449 244 37713ft 412kts
19-Jun-18 10:48 36.687996 135.635442 244 37715ft 414kts
19-Jun-18 10:49 36.637964 135.506110 244 37722ft 413kts
19-Jun-18 10:50 36.587982 135.377418 244 37716ft 413kts
19-Jun-18 10:51 36.537959 135.249147 243 37713ft 412kts
19-Jun-18 10:52 36.487620 135.120588 243 37709ft 412kts
19-Jun-18 10:53 36.437335 134.992679 243 37706ft 412kts
19-Jun-18 10:54 36.387006 134.865149 243 37703ft 412kts
19-Jun-18 10:55 36.336621 134.737191 243 37715ft 412kts
19-Jun-18 10:56 36.285836 134.610058 243 37709ft 412kts
19-Jun-18 10:57 36.234443 134.483358 240 37706ft 412kts
19-Jun-18 10:58 36.173601 134.362758 238 37700ft 412kts
19-Jun-18 10:59 36.112902 134.242415 238 37693ft 413kts
19-Jun-18 11:00 36.052809 134.121379 239 37686ft 413kts
19-Jun-18 11:01 35.992124 134.000431 238 37676ft 413kts
19-Jun-18 11:02 35.931287 133.880086 238 37660ft 413kts
19-Jun-18 11:03 35.902904 133.744541 266 37669ft 421kts
19-Jun-18 11:04 35.904182 133.599808 265 37666ft 421kts
19-Jun-18 11:05 35.902096 133.455367 264 37661ft 421kts
19-Jun-18 11:06 35.899964 133.310410 264 37657ft 421kts
19-Jun-18 11:07 35.897402 133.166023 264 37684ft 421kts
19-Jun-18 11:08 35.894481 133.021743 264 37693ft 421kts
19-Jun-18 11:09 35.891341 132.877060 264 37702ft 421kts
19-Jun-18 11:10 35.888038 132.733068 263 37747ft 420kts
19-Jun-18 11:11 35.884565 132.589208 263 37745ft 420kts
19-Jun-18 11:12 35.880919 132.445254 263 37743ft 419kts
19-Jun-18 11:13 35.877112 132.301849 262 37739ft 419kts
19-Jun-18 11:14 35.873146 132.158741 262 37738ft 418kts
19-Jun-18 11:15 35.869002 132.015373 262 37733ft 417kts
19-Jun-18 11:16 35.864705 131.872586 262 37728ft 417kts
19-Jun-18 11:17 35.860222 131.729292 262 37722ft 418kts
19-Jun-18 11:18 35.855575 131.586235 262 37716ft 418kts
19-Jun-18 11:19 35.850752 131.442906 262 37705ft 419kts
19-Jun-18 11:20 35.845750 131.299358 262 37699ft 419kts
19-Jun-18 11:21 35.840574 131.155820 262 37694ft 420kts
19-Jun-18 11:22 35.835569 131.011829 262 37666ft 421kts
19-Jun-18 11:23 35.829817 130.867487 262 37659ft 420kts
19-Jun-18 11:24 35.824949 130.723460 266 37664ft 424kts
19-Jun-18 11:25 35.841397 130.577544 273 37664ft 431kts
19-Jun-18 11:26 35.860588 130.432339 272 37666ft 429kts
19-Jun-18 11:27 35.878757 130.286920 272 37669ft 430kts
19-Jun-18 11:28 35.897591 130.141081 272 37666ft 429kts
19-Jun-18 11:29 35.915251 129.995793 272 37689ft 428kts
19-Jun-18 11:30 35.932709 129.850487 272 37723ft 429kts
19-Jun-18 11:31 35.950320 129.704649 272 37728ft 428kts
19-Jun-18 11:32 35.967239 129.559167 272 37732ft 429kts
19-Jun-18 11:33 36.004473 129.418189 297 37711ft 455kts
19-Jun-18 11:34 36.081586 129.293335 298 37695ft 453kts
19-Jun-18 11:35 36.154400 129.166895 298 37696ft 451kts
19-Jun-18 11:36 36.227192 129.040991 297 37699ft 449kts
19-Jun-18 11:37 36.299278 128.914360 298 37700ft 448kts
19-Jun-18 11:38 36.371087 128.787953 298 37700ft 447kts
19-Jun-18 11:39 36.442219 128.662015 298 37721ft 445kts
19-Jun-18 11:40 36.513674 128.536335 298 37709ft 445kts
19-Jun-18 11:41 36.584463 128.409992 298 37709ft 444kts
19-Jun-18 11:42 36.655355 128.284242 299 37709ft 444kts
19-Jun-18 11:43 36.727045 128.158718 298 37713ft 443kts
19-Jun-18 11:44 36.761686 128.098186 298 37710ft 443kts
19-Jun-18 11:45 36.761686 128.098186 298 37710ft 443kts
19-Jun-18 11:46 36.761686 128.098186 298 37710ft 443kts
19-Jun-18 11:47 36.761686 128.098186 298 37710ft 443kts
19-Jun-18 11:48 36.761686 128.098186 298 37710ft 443kts
19-Jun-18 11:49 36.761686 128.098186 298 37710ft 443kts
19-Jun-18 11:50 36.761686 128.098186 298 37710ft 443kts
19-Jun-18 11:51 36.761686 128.098186 298 37710ft 443kts
19-Jun-18 11:52 36.761686 128.098186 298 37710ft 443kts
19-Jun-18 11:53 36.761686 128.098186 298 37710ft 443kts
19-Jun-18 11:54 36.761686 128.098186 298 37710ft 443kts
19-Jun-18 11:55 36.761686 128.098186 298 37710ft 443kts
19-Jun-18 11:56 36.761686 128.098186 298 37710ft 443kts
19-Jun-18 11:57 36.761686 128.098186 298 37710ft 443kts
19-Jun-18 11:58 36.761686 128.098186 298 37710ft 443kts
19-Jun-18 11:59 36.761686 128.098186 298 37710ft 443kts
19-Jun-18 12:00 36.761686 128.098186 298 37710ft 443kts
19-Jun-18 12:01 36.761686 128.098186 298 37710ft 443kts
19-Jun-18 12:02 36.761686 128.098186 298 37710ft 443kts
19-Jun-18 12:03 36.761686 128.098186 298 37710ft 443kts
19-Jun-18 12:04 36.761686 128.098186 298 37710ft 443kts
19-Jun-18 12:05 36.761686 128.098186 298 37710ft 443kts
19-Jun-18 12:06 36.766899 128.089019 298 37710ft 443kts
19-Jun-18 12:07 36.837941 127.963732 299 37709ft 441kts
19-Jun-18 12:08 36.907009 127.841844 298 37002ft 413kts
19-Jun-18 12:09 36.973685 127.722813 298 34393ft 419kts
19-Jun-18 12:10 37.042114 127.600582 299 31946ft 441kts
19-Jun-18 12:11 37.113334 127.472163 299 29506ft 446kts
19-Jun-18 12:12 37.182816 127.347623 299 27300ft 427kts
19-Jun-18 12:13 37.249110 127.227525 299 25165ft 409kts
19-Jun-18 12:14 37.312499 127.112436 299 23107ft 394kts
19-Jun-18 12:15 37.373777 127.001096 299 21047ft 382kts
19-Jun-18 12:16 37.398340 126.879443 262 18936ft 381kts
19-Jun-18 12:17 37.374020 126.753130 254 17842ft 348kts
19-Jun-18 12:18 37.348726 126.645215 255 17580ft 298kts
19-Jun-18 12:19 37.332094 126.541311 262 14951ft 328kts
19-Jun-18 12:20 37.331897 126.420009 289 12938ft 362kts
19-Jun-18 12:21 37.396090 126.328213 322 11142ft 349kts
19-Jun-18 12:22 37.473400 126.257855 323 9348ft 338kts
19-Jun-18 12:23 37.547271 126.190198 323 7547ft 313kts
19-Jun-18 12:24 37.615108 126.128118 323 5748ft 290kts
19-Jun-18 12:25 37.678584 126.070854 330 4201ft 267kts
19-Jun-18 12:26 37.731141 126.105482 83 3428ft 245kts
19-Jun-18 12:27 37.703328 126.176445 121 3104ft 213kts
19-Jun-18 12:28 37.672166 126.238976 121 2997ft 211kts
19-Jun-18 12:29 37.639423 126.299631 138 2796ft 205kts
19-Jun-18 12:30 37.598074 126.335053 145 2621ft 160kts
19-Jun-18 12:31 37.562916 126.367127 144 1930ft 153kts
19-Jun-18 12:32 37.528932 126.398256 144 1139ft 146kts
19-Jun-18 12:33 37.496241 126.428176 144 351ft 144kts
19-Jun-18 12:34 37.469860 126.452629 143 36ft 18kts
19-Jun-18 12:35 37.469771 126.452711 143 36ft 0kts
19-Jun-18 12:36 37.469771 126.452711 143 36ft 0kts
19-Jun-18 12:37 37.469771 126.452711 143 36ft 0kts
19-Jun-18 12:38 37.469771 126.452711 143 36ft 0kts
19-Jun-18 12:39 37.469771 126.452711 143 36ft 0kts

Navigation Log

Ident Type
Flight plan parsing failed, navigation log unavailable